sensor_id;sensor_type;location;lat;lon;timestamp;pressure;altitude;pressure_sealevel;temperature;humidity
29331;BME280;16331;52.528;13.342;2022-10-24T00:00:21;136615.34;;;14.95;100.00
29331;BME280;16331;52.528;13.342;2022-10-24T00:02:47;144598.66;;;15.05;100.00
29331;BME280;16331;52.528;13.342;2022-10-24T00:05:13;158728.25;;;15.23;100.00
29331;BME280;16331;52.528;13.342;2022-10-24T00:07:40;159813.63;;;14.95;100.00
29331;BME280;16331;52.528;13.342;2022-10-24T00:10:07;148487.84;;;14.67;100.00
29331;BME280;16331;52.528;13.342;2022-10-24T00:12:34;131477.19;;;14.58;100.00
29331;BME280;16331;52.528;13.342;2022-10-24T00:15:00;122117.06;;;14.60;100.00
29331;BME280;16331;52.528;13.342;2022-10-24T00:17:26;117448.66;;;14.62;100.00
29331;BME280;16331;52.528;13.342;2022-10-24T00:19:52;115304.16;;;14.67;100.00
29331;BME280;16331;52.528;13.342;2022-10-24T00:22:19;112789.09;;;14.65;100.00
29331;BME280;16331;52.528;13.342;2022-10-24T00:24:46;110627.72;;;14.60;100.00
29331;BME280;16331;52.528;13.342;2022-10-24T00:27:12;109550.53;;;14.59;100.00
29331;BME280;16331;52.528;13.342;2022-10-24T00:29:38;104516.06;;;14.47;100.00
29331;BME280;16331;52.528;13.342;2022-10-24T00:32:04;98804.75;;;14.52;100.00
29331;BME280;16331;52.528;13.342;2022-10-24T00:34:30;94522.28;;;14.53;100.00
29331;BME280;16331;52.528;13.342;2022-10-24T00:36:56;93102.75;;;14.58;100.00
29331;BME280;16331;52.528;13.342;2022-10-24T00:39:22;93083.22;;;14.46;100.00
29331;BME280;16331;52.528;13.342;2022-10-24T00:41:49;89543.28;;;14.62;100.00
29331;BME280;16331;52.528;13.342;2022-10-24T00:44:26;92046.53;;;14.67;100.00
29331;BME280;16331;52.528;13.342;2022-10-24T00:47:16;93820.25;;;14.61;100.00
29331;BME280;16331;52.528;13.342;2022-10-24T00:50:02;93080.78;;;14.44;100.00
29331;BME280;16331;52.528;13.342;2022-10-24T00:52:37;88448.94;;;14.45;100.00
29331;BME280;16331;52.528;13.342;2022-10-24T00:55:07;86667.25;;;14.44;100.00
29331;BME280;16331;52.528;13.342;2022-10-24T00:57:42;84515.31;;;14.32;100.00
29331;BME280;16331;52.528;13.342;2022-10-24T01:00:13;79893.63;;;14.31;100.00
29331;BME280;16331;52.528;13.342;2022-10-24T01:02:39;77398.19;;;14.24;100.00
29331;BME280;16331;52.528;13.342;2022-10-24T01:05:06;75269.00;;;14.23;100.00
29331;BME280;16331;52.528;13.342;2022-10-24T01:10:54;72799.09;;;14.32;100.00
29331;BME280;16331;52.528;13.342;2022-10-24T01:13:56;72096.03;;;14.37;100.00
29331;BME280;16331;52.528;13.342;2022-10-24T01:16:36;71737.22;;;14.33;100.00
29331;BME280;16331;52.528;13.342;2022-10-24T01:19:46;71385.44;;;14.35;100.00
29331;BME280;16331;52.528;13.342;2022-10-24T01:22:29;70331.38;;;14.42;100.00
29331;BME280;16331;52.528;13.342;2022-10-24T01:30:13;73541.75;;;14.59;100.00
29331;BME280;16331;52.528;13.342;2022-10-24T01:32:43;75319.50;;;14.62;100.00
29331;BME280;16331;52.528;13.342;2022-10-24T01:35:33;76723.72;;;14.50;100.00
29331;BME280;16331;52.528;13.342;2022-10-24T01:38:10;73891.22;;;14.55;100.00
29331;BME280;16331;52.528;13.342;2022-10-24T01:40:56;71751.16;;;14.44;100.00
29331;BME280;16331;52.528;13.342;2022-10-24T01:43:26;69971.59;;;14.38;100.00
29331;BME280;16331;52.528;13.342;2022-10-24T01:45:57;68903.75;;;14.33;100.00
29331;BME280;16331;52.528;13.342;2022-10-24T01:48:27;67504.69;;;14.47;100.00
29331;BME280;16331;52.528;13.342;2022-10-24T01:50:56;68211.50;;;14.46;100.00
29331;BME280;16331;52.528;13.342;2022-10-24T01:53:24;68578.91;;;14.58;100.00
29331;BME280;16331;52.528;13.342;2022-10-24T01:55:54;71400.56;;;14.47;100.00
29331;BME280;16331;52.528;13.342;2022-10-24T01:58:20;71384.16;;;14.34;100.00
29331;BME280;16331;52.528;13.342;2022-10-24T02:00:48;68922.06;;;14.48;100.00
29331;BME280;16331;52.528;13.342;2022-10-24T02:03:21;71050.63;;;14.51;100.00
29331;BME280;16331;52.528;13.342;2022-10-24T02:05:52;73900.34;;;14.62;100.00
29331;BME280;16331;52.528;13.342;2022-10-24T02:08:27;77426.84;;;14.45;100.00
29331;BME280;16331;52.528;13.342;2022-10-24T02:10:58;75288.28;;;14.38;100.00
29331;BME280;16331;52.528;13.342;2022-10-24T02:13:33;72462.59;;;14.46;100.00
29331;BME280;16331;52.528;13.342;2022-10-24T02:16:02;74239.38;;;14.49;100.00
29331;BME280;16331;52.528;13.342;2022-10-24T02:18:29;76011.88;;;14.48;100.00
29331;BME280;16331;52.528;13.342;2022-10-24T02:26:16;87037.69;;;14.53;100.00
29331;BME280;16331;52.528;13.342;2022-10-24T02:28:47;86318.91;;;14.49;100.00
29331;BME280;16331;52.528;13.342;2022-10-24T02:31:17;83455.13;;;14.37;100.00
29331;BME280;16331;52.528;13.342;2022-10-24T02:33:48;81679.94;;;14.38;100.00
29331;BME280;16331;52.528;13.342;2022-10-24T02:36:19;79179.22;;;14.28;100.00
29331;BME280;16331;52.528;13.342;2022-10-24T02:38:48;76333.09;;;14.23;100.00
29331;BME280;16331;52.528;13.342;2022-10-24T02:41:20;73874.28;;;14.41;100.00
29331;BME280;16331;52.528;13.342;2022-10-24T02:43:49;77757.88;;;14.27;100.00
29331;BME280;16331;52.528;13.342;2022-10-24T02:46:16;77768.13;;;14.35;100.00
29331;BME280;16331;52.528;13.342;2022-10-24T02:48:52;79191.06;;;14.37;100.00
29331;BME280;16331;52.528;13.342;2022-10-24T02:51:21;80969.25;;;14.38;100.00
29331;BME280;16331;52.528;13.342;2022-10-24T02:53:49;83095.22;;;14.34;100.00
29331;BME280;16331;52.528;13.342;2022-10-24T02:56:16;82002.19;;;14.15;100.00
29331;BME280;16331;52.528;13.342;2022-10-24T02:58:42;78089.38;;;14.10;100.00
29331;BME280;16331;52.528;13.342;2022-10-24T03:01:08;74543.38;;;14.11;100.00
29331;BME280;16331;52.528;13.342;2022-10-24T03:03:34;73495.00;;;14.22;100.00
29331;BME280;16331;52.528;13.342;2022-10-24T03:06:00;75263.03;;;14.19;100.00
29331;BME280;16331;52.528;13.342;2022-10-24T03:08:26;74893.25;;;14.07;100.00
29331;BME280;16331;52.528;13.342;2022-10-24T03:10:52;73844.25;;;14.18;100.00
29331;BME280;16331;52.528;13.342;2022-10-24T03:13:18;76683.78;;;14.20;100.00
29331;BME280;16331;52.528;13.342;2022-10-24T03:15:44;78449.78;;;14.14;100.00
29331;BME280;16331;52.528;13.342;2022-10-24T03:18:10;78437.34;;;14.05;100.00
29331;BME280;16331;52.528;13.342;2022-10-24T03:20:36;75962.28;;;14.11;100.00
29331;BME280;16331;52.528;13.342;2022-10-24T03:23:03;75963.63;;;14.12;100.00
29331;BME280;16331;52.528;13.342;2022-10-24T03:25:29;78801.94;;;14.12;100.00
29331;BME280;16331;52.528;13.342;2022-10-24T03:27:55;78075.66;;;14.00;100.00
29331;BME280;16331;52.528;13.342;2022-10-24T03:30:21;75592.34;;;14.00;100.00
29331;BME280;16331;52.528;13.342;2022-10-24T03:32:47;74171.22;;;13.97;100.00
29331;BME280;16331;52.528;13.342;2022-10-24T03:35:13;74526.28;;;13.98;100.00
29331;BME280;16331;52.528;13.342;2022-10-24T03:37:39;73810.38;;;13.92;100.00
29331;BME280;16331;52.528;13.342;2022-10-24T03:40:06;72750.16;;;13.94;100.00
29331;BME280;16331;52.528;13.342;2022-10-24T03:42:32;72750.81;;;13.95;100.00
29331;BME280;16331;52.528;13.342;2022-10-24T03:44:58;73457.38;;;13.93;100.00
29331;BME280;16331;52.528;13.342;2022-10-24T03:47:24;73101.81;;;13.92;100.00
29331;BME280;16331;52.528;13.342;2022-10-24T03:49:50;72392.16;;;13.91;100.00
29331;BME280;16331;52.528;13.342;2022-10-24T03:52:16;72391.53;;;13.91;100.00
29331;BME280;16331;52.528;13.342;2022-10-24T03:54:42;72744.38;;;13.90;100.00
29331;BME280;16331;52.528;13.342;2022-10-24T03:57:08;72398.53;;;13.96;100.00
29331;BME280;16331;52.528;13.342;2022-10-24T03:59:35;73461.25;;;13.96;100.00
29331;BME280;16331;52.528;13.342;2022-10-24T04:02:01;75584.34;;;13.94;100.00
29331;BME280;16331;52.528;13.342;2022-10-24T04:04:28;75231.19;;;13.95;100.00
29331;BME280;16331;52.528;13.342;2022-10-24T04:06:54;76292.72;;;13.93;100.00
29331;BME280;16331;52.528;13.342;2022-10-24T04:09:20;77709.25;;;13.92;100.00
29331;BME280;16331;52.528;13.342;2022-10-24T04:11:47;78420.09;;;13.93;100.00
29331;BME280;16331;52.528;13.342;2022-10-24T04:14:14;78422.16;;;13.94;100.00
29331;BME280;16331;52.528;13.342;2022-10-24T04:16:40;78074.28;;;13.99;100.00
29331;BME280;16331;52.528;13.342;2022-10-24T04:19:06;80204.34;;;14.00;100.00
29331;BME280;16331;52.528;13.342;2022-10-24T04:21:32;80567.16;;;14.05;100.00
29331;BME280;16331;52.528;13.342;2022-10-24T04:23:58;83042.69;;;13.98;100.00
29331;BME280;16331;52.528;13.342;2022-10-24T04:26:24;81964.72;;;13.89;100.00
29331;BME280;16331;52.528;13.342;2022-10-24T04:28:50;80189.53;;;13.89;100.00
29331;BME280;16331;52.528;13.342;2022-10-24T04:31:17;78772.16;;;13.91;100.00
29331;BME280;16331;52.528;13.342;2022-10-24T04:33:43;79135.31;;;13.97;100.00
29331;BME280;16331;52.528;13.342;2022-10-24T04:36:09;80183.91;;;13.85;100.00
29331;BME280;16331;52.528;13.342;2022-10-24T04:38:35;78774.22;;;13.92;100.00
29331;BME280;16331;52.528;13.342;2022-10-24T04:41:03;79116.50;;;13.83;100.00
29331;BME280;16331;52.528;13.342;2022-10-24T04:43:29;77706.50;;;13.90;100.00
29331;BME280;16331;52.528;13.342;2022-10-24T04:45:55;77365.47;;;14.00;100.00
29331;BME280;16331;52.528;13.342;2022-10-24T04:48:21;79476.94;;;13.87;100.00
29331;BME280;16331;52.528;13.342;2022-10-24T04:50:48;78067.41;;;13.94;100.00
29331;BME280;16331;52.528;13.342;2022-10-24T04:53:14;77725.00;;;14.03;100.00
29331;BME280;16331;52.528;13.342;2022-10-24T04:55:40;79140.19;;;14.00;100.00
29331;BME280;16331;52.528;13.342;2022-10-24T04:58:06;78441.53;;;14.08;100.00
29331;BME280;16331;52.528;13.342;2022-10-24T05:00:34;82706.28;;;14.11;100.00
29331;BME280;16331;52.528;13.342;2022-10-24T05:03:00;84130.13;;;14.12;100.00
29331;BME280;16331;52.528;13.342;2022-10-24T05:05:26;84125.69;;;14.09;100.00
29331;BME280;16331;52.528;13.342;2022-10-24T05:07:52;84124.22;;;14.08;100.00
29331;BME280;16331;52.528;13.342;2022-10-24T05:10:20;83762.91;;;14.04;100.00
29331;BME280;16331;52.528;13.342;2022-10-24T05:12:46;83413.38;;;14.08;100.00
29331;BME280;16331;52.528;13.342;2022-10-24T05:15:12;83759.22;;;14.02;100.00
29331;BME280;16331;52.528;13.342;2022-10-24T05:17:39;82693.22;;;14.02;100.00
29331;BME280;16331;52.528;13.342;2022-10-24T05:20:06;80918.00;;;14.02;100.00
29331;BME280;16331;52.528;13.342;2022-10-24T05:22:32;81629.00;;;14.03;100.00
29331;BME280;16331;52.528;13.342;2022-10-24T05:24:59;83055.09;;;14.06;100.00
29331;BME280;16331;52.528;13.342;2022-10-24T05:27:25;84111.69;;;14.00;100.00
29331;BME280;16331;52.528;13.342;2022-10-24T05:29:55;82330.00;;;13.96;100.00
29331;BME280;16331;52.528;13.342;2022-10-24T05:32:22;82355.31;;;14.14;100.00
29331;BME280;16331;52.528;13.342;2022-10-24T05:34:48;85899.75;;;14.07;100.00
29331;BME280;16331;52.528;13.342;2022-10-24T05:37:15;85532.84;;;13.99;100.00
29331;BME280;16331;52.528;13.342;2022-10-24T05:39:41;83759.94;;;14.02;100.00
29331;BME280;16331;52.528;13.342;2022-10-24T05:42:07;85889.97;;;14.00;100.00
29331;BME280;16331;52.528;13.342;2022-10-24T05:44:34;84473.78;;;14.04;100.00
29331;BME280;16331;52.528;13.342;2022-10-24T05:47:00;85184.03;;;14.04;100.00
29331;BME280;16331;52.528;13.342;2022-10-24T05:49:26;86619.44;;;14.12;100.00
29331;BME280;16331;52.528;13.342;2022-10-24T05:51:52;89475.16;;;14.18;100.00
29331;BME280;16331;52.528;13.342;2022-10-24T05:54:18;91576.22;;;13.95;100.00
29331;BME280;16331;52.528;13.342;2022-10-24T05:56:44;88026.53;;;14.02;100.00
29331;BME280;16331;52.528;13.342;2022-10-24T05:59:10;88387.75;;;14.05;100.00
29331;BME280;16331;52.528;13.342;2022-10-24T06:01:36;88731.22;;;13.97;100.00
29331;BME280;16331;52.528;13.342;2022-10-24T06:04:02;86950.03;;;13.96;100.00
29331;BME280;16331;52.528;13.342;2022-10-24T06:06:28;85541.13;;;14.05;100.00
29331;BME280;16331;52.528;13.342;2022-10-24T06:08:54;88765.44;;;14.19;100.00
29331;BME280;16331;52.528;13.342;2022-10-24T06:11:20;93770.31;;;14.30;100.00
29331;BME280;16331;52.528;13.342;2022-10-24T06:13:46;96594.59;;;14.12;100.00
29331;BME280;16331;52.528;13.342;2022-10-24T06:16:12;92328.09;;;14.20;100.00
29331;BME280;16331;52.528;13.342;2022-10-24T06:18:39;93439.00;;;14.45;100.00
29331;BME280;16331;52.528;13.342;2022-10-24T06:21:06;97388.88;;;14.60;100.00
29331;BME280;16331;52.528;13.342;2022-10-24T06:23:33;107408.44;;;14.63;100.00
29331;BME280;16331;52.528;13.342;2022-10-24T06:25:59;111002.63;;;14.69;100.00
29331;BME280;16331;52.528;13.342;2022-10-24T06:28:25;114192.66;;;14.49;100.00
29331;BME280;16331;52.528;13.342;2022-10-24T06:30:52;108802.69;;;14.42;100.00
29331;BME280;16331;52.528;13.342;2022-10-24T06:33:21;105217.06;;;14.39;100.00
29331;BME280;16331;52.528;13.342;2022-10-24T06:35:47;105571.22;;;14.37;100.00
29331;BME280;16331;52.528;13.342;2022-10-24T06:38:13;103460.84;;;14.58;100.00
29331;BME280;16331;52.528;13.342;2022-10-24T06:40:39;112772.44;;;14.57;100.00
29331;BME280;16331;52.528;13.342;2022-10-24T06:43:07;118882.63;;;14.60;100.00
29331;BME280;16331;52.528;13.342;2022-10-24T06:45:34;117424.25;;;14.49;100.00
29331;BME280;16331;52.528;13.342;2022-10-24T06:48:00;113123.31;;;14.52;100.00
29331;BME280;16331;52.528;13.342;2022-10-24T06:50:26;114567.34;;;14.57;100.00
29331;BME280;16331;52.528;13.342;2022-10-24T06:52:52;111688.81;;;14.52;100.00
29331;BME280;16331;52.528;13.342;2022-10-24T06:55:18;112768.56;;;14.55;100.00
29331;BME280;16331;52.528;13.342;2022-10-24T06:57:44;112069.75;;;14.64;100.00
29331;BME280;16331;52.528;13.342;2022-10-24T07:00:11;116704.03;;;14.48;100.00
29331;BME280;16331;52.528;13.342;2022-10-24T07:02:39;113476.13;;;14.49;100.00
29331;BME280;16331;52.528;13.342;2022-10-24T07:05:05;110966.03;;;14.49;100.00
29331;BME280;16331;52.528;13.342;2022-10-24T07:07:35;107722.63;;;14.39;100.00
29331;BME280;16331;52.528;13.342;2022-10-24T07:10:01;104875.66;;;14.48;100.00
29331;BME280;16331;52.528;13.342;2022-10-24T07:12:27;105960.41;;;14.55;100.00
29331;BME280;16331;52.528;13.342;2022-10-24T07:14:53;104173.69;;;14.56;100.00
29331;BME280;16331;52.528;13.342;2022-10-24T07:17:19;104535.16;;;14.58;100.00
29331;BME280;16331;52.528;13.342;2022-10-24T07:19:54;108848.03;;;14.67;100.00
29331;BME280;16331;52.528;13.342;2022-10-24T07:22:20;111379.56;;;14.78;100.00
29331;BME280;16331;52.528;13.342;2022-10-24T07:24:53;117514.84;;;14.94;100.00
29331;BME280;16331;52.528;13.342;2022-10-24T07:27:20;126890.06;;;15.03;100.00
29331;BME280;16331;52.528;13.342;2022-10-24T07:29:47;132668.03;;;15.06;100.00
29331;BME280;16331;52.528;13.342;2022-10-24T07:32:13;138482.25;;;15.20;100.00
29331;BME280;16331;52.528;13.342;2022-10-24T07:34:42;147578.97;;;15.37;100.00
29331;BME280;16331;52.528;13.342;2022-10-24T07:37:09;159942.81;;;15.46;100.00
29331;BME280;16331;52.528;13.342;2022-10-24T07:39:35;159980.38;;;15.55;100.00
29331;BME280;16331;52.528;13.342;2022-10-24T07:42:03;159994.16;;;15.60;100.00
29331;BME280;16331;52.528;13.342;2022-10-24T07:44:31;160031.34;;;15.74;100.00
29331;BME280;16331;52.528;13.342;2022-10-24T07:46:57;160034.09;;;15.75;100.00
29331;BME280;16331;52.528;13.342;2022-10-24T07:49:24;160014.81;;;15.68;100.00
29331;BME280;16331;52.528;13.342;2022-10-24T07:51:50;160023.09;;;15.71;100.00
29331;BME280;16331;52.528;13.342;2022-10-24T07:54:16;160068.59;;;15.87;100.00
29331;BME280;16331;52.528;13.342;2022-10-24T07:56:42;160078.19;;;15.91;100.00
29331;BME280;16331;52.528;13.342;2022-10-24T07:59:08;160080.97;;;15.92;100.00
29331;BME280;16331;52.528;13.342;2022-10-24T08:01:34;160100.25;;;15.99;100.00
29331;BME280;16331;52.528;13.342;2022-10-24T08:04:00;160111.31;;;16.03;100.00
29331;BME280;16331;52.528;13.342;2022-10-24T08:06:30;160155.41;;;16.19;100.00
29331;BME280;16331;52.528;13.342;2022-10-24T08:08:56;160180.22;;;16.28;100.00
29331;BME280;16331;52.528;13.342;2022-10-24T08:11:25;160202.28;;;16.36;100.00
29331;BME280;16331;52.528;13.342;2022-10-24T08:13:52;160178.88;;;16.28;100.00
29331;BME280;16331;52.528;13.342;2022-10-24T08:16:21;160243.72;;;16.51;100.00
29331;BME280;16331;52.528;13.342;2022-10-24T08:18:48;160252.00;;;16.54;100.00
29331;BME280;16331;52.528;13.342;2022-10-24T08:21:16;160261.66;;;16.58;100.00
29331;BME280;16331;52.528;13.342;2022-10-24T08:23:45;160279.59;;;16.64;100.00
29331;BME280;16331;52.528;13.342;2022-10-24T08:26:14;160338.88;;;16.86;100.00
29331;BME280;16331;52.528;13.342;2022-10-24T08:28:41;160399.56;;;17.08;100.00
29331;BME280;16331;52.528;13.342;2022-10-24T08:31:10;160425.78;;;17.17;100.00
29331;BME280;16331;52.528;13.342;2022-10-24T08:33:37;160438.25;;;17.22;100.00
29331;BME280;16331;52.528;13.342;2022-10-24T08:36:06;160447.88;;;17.25;100.00
29331;BME280;16331;52.528;13.342;2022-10-24T08:38:37;160465.81;;;17.32;100.00
29331;BME280;16331;52.528;13.342;2022-10-24T08:41:03;160463.06;;;17.31;100.00
29331;BME280;16331;52.528;13.342;2022-10-24T08:43:31;160489.28;;;17.41;100.00
29331;BME280;16331;52.528;13.342;2022-10-24T08:46:57;160555.59;;;17.65;100.00
29331;BME280;16331;52.528;13.342;2022-10-24T08:49:00;160565.28;;;17.68;100.00
29331;BME280;16331;52.528;13.342;2022-10-24T08:52:13;160579.09;;;17.73;100.00
29331;BME280;16331;52.528;13.342;2022-10-24T08:54:46;160540.41;;;17.59;100.00
29331;BME280;16331;52.528;13.342;2022-10-24T08:57:29;160574.94;;;17.72;100.00
29331;BME280;16331;52.528;13.342;2022-10-24T09:00:02;160566.63;;;17.69;100.00
29331;BME280;16331;52.528;13.342;2022-10-24T09:02:35;160558.34;;;17.66;100.00
29331;BME280;16331;52.528;13.342;2022-10-24T09:07:44;160579.09;;;17.73;100.00
29331;BME280;16331;52.528;13.342;2022-10-24T09:10:33;160572.16;;;17.71;100.00
29331;BME280;16331;52.528;13.342;2022-10-24T09:13:12;160594.25;;;17.79;100.00
29331;BME280;16331;52.528;13.342;2022-10-24T09:15:40;160605.31;;;17.83;100.00
29331;BME280;16331;52.528;13.342;2022-10-24T09:18:32;160619.13;;;17.88;100.00
29331;BME280;16331;52.528;13.342;2022-10-24T09:21:04;160599.78;;;17.81;100.00
29331;BME280;16331;52.528;13.342;2022-10-24T09:23:33;160609.47;;;17.84;100.00
29331;BME280;16331;52.528;13.342;2022-10-24T09:26:00;160646.72;;;17.98;100.00
29331;BME280;16331;52.528;13.342;2022-10-24T09:28:31;160682.63;;;18.11;100.00
29331;BME280;16331;52.528;13.342;2022-10-24T09:31:04;160696.44;;;18.16;100.00
29331;BME280;16331;52.528;13.342;2022-10-24T09:33:38;160718.53;;;18.24;100.00
29331;BME280;16331;52.528;13.342;2022-10-24T09:36:10;160701.97;;;18.18;100.00
29331;BME280;16331;52.528;13.342;2022-10-24T09:38:39;160728.22;;;18.27;100.00
29331;BME280;16331;52.528;13.342;2022-10-24T09:41:29;160730.97;;;18.28;100.00
29331;BME280;16331;52.528;13.342;2022-10-24T09:43:59;160795.91;;;18.52;100.00
29331;BME280;16331;52.528;13.342;2022-10-24T09:46:34;160798.72;;;18.53;100.00
29331;BME280;16331;52.528;13.342;2022-10-24T09:51:43;160853.97;;;18.73;100.00
29331;BME280;16331;52.528;13.342;2022-10-24T09:56:45;160822.22;;;18.61;100.00
29331;BME280;16331;52.528;13.342;2022-10-24T09:59:33;160851.22;;;18.72;100.00
29331;BME280;16331;52.528;13.342;2022-10-24T10:02:20;160816.69;;;18.59;100.00
29331;BME280;16331;52.528;13.342;2022-10-24T10:05:13;160844.28;;;18.69;100.00
29331;BME280;16331;52.528;13.342;2022-10-24T10:07:41;160889.91;;;18.86;100.00
29331;BME280;16331;52.528;13.342;2022-10-24T10:10:31;160898.19;;;18.89;100.00
29331;BME280;16331;52.528;13.342;2022-10-24T10:13:05;160914.75;;;18.95;100.00
29331;BME280;16331;52.528;13.342;2022-10-24T10:15:44;160905.13;;;18.92;100.00
29331;BME280;16331;52.528;13.342;2022-10-24T10:18:24;160909.25;;;18.93;100.00
29331;BME280;16331;52.528;13.342;2022-10-24T10:23:27;160929.97;;;19.01;100.00
29331;BME280;16331;52.528;13.342;2022-10-24T10:28:50;160956.22;;;19.10;100.00
29331;BME280;16331;52.528;13.342;2022-10-24T10:31:32;160992.19;;;19.23;100.00
29331;BME280;16331;52.528;13.342;2022-10-24T10:36:49;161000.47;;;19.26;100.00
29331;BME280;16331;52.528;13.342;2022-10-24T10:39:29;161022.63;;;19.34;100.00
29331;BME280;16331;52.528;13.342;2022-10-24T10:42:10;161028.19;;;19.36;100.00
29331;BME280;16331;52.528;13.342;2022-10-24T10:45:08;160989.44;;;19.22;100.00
29331;BME280;16331;52.528;13.342;2022-10-24T10:53:36;161033.72;;;19.38;100.00
29331;BME280;16331;52.528;13.342;2022-10-24T10:56:24;161026.78;;;19.36;100.00
29331;BME280;16331;52.528;13.342;2022-10-24T11:02:35;161044.75;;;19.42;100.00
29331;BME280;16331;52.528;13.342;2022-10-24T11:04:46;161015.75;;;19.32;100.00
29331;BME280;16331;52.528;13.342;2022-10-24T11:09:48;161030.94;;;19.37;100.00
29331;BME280;16331;52.528;13.342;2022-10-24T11:12:37;160992.19;;;19.23;100.00
29331;BME280;16331;52.528;13.342;2022-10-24T11:15:22;160979.75;;;19.19;100.00
29331;BME280;16331;52.528;13.342;2022-10-24T11:18:11;161029.53;;;19.37;100.00
29331;BME280;16331;52.528;13.342;2022-10-24T11:20:59;161064.13;;;19.49;100.00
29331;BME280;16331;52.528;13.342;2022-10-24T11:23:41;161014.34;;;19.31;100.00
29331;BME280;16331;52.528;13.342;2022-10-24T11:26:13;161030.94;;;19.37;100.00
29331;BME280;16331;52.528;13.342;2022-10-24T11:28:56;161054.44;;;19.46;100.00
29331;BME280;16331;52.528;13.342;2022-10-24T11:31:41;161019.88;;;19.33;100.00
29331;BME280;16331;52.528;13.342;2022-10-24T11:34:24;161008.81;;;19.29;100.00
29331;BME280;16331;52.528;13.342;2022-10-24T11:37:05;161011.59;;;19.30;100.00
29331;BME280;16331;52.528;13.342;2022-10-24T11:39:53;161025.38;;;19.35;100.00
29331;BME280;16331;52.528;13.342;2022-10-24T11:45:15;161017.09;;;19.32;100.00
29331;BME280;16331;52.528;13.342;2022-10-24T11:50:44;161033.72;;;19.38;100.00
29331;BME280;16331;52.528;13.342;2022-10-24T11:53:42;161030.94;;;19.37;100.00
29331;BME280;16331;52.528;13.342;2022-10-24T11:59:18;161069.63;;;19.51;100.00
29331;BME280;16331;52.528;13.342;2022-10-24T12:04:34;161119.41;;;19.69;100.00
29331;BME280;16331;52.528;13.342;2022-10-24T12:10:51;161100.03;;;19.62;100.00
29331;BME280;16331;52.528;13.342;2022-10-24T12:13:46;161177.50;;;19.90;100.00
29331;BME280;16331;52.528;13.342;2022-10-24T12:16:32;161152.63;;;19.81;100.00
29331;BME280;16331;52.528;13.342;2022-10-24T12:25:37;161196.91;;;19.97;100.00
29331;BME280;16331;52.528;13.342;2022-10-24T12:28:22;161199.63;;;19.98;100.00
29331;BME280;16331;52.528;13.342;2022-10-24T12:33:45;161144.28;;;19.78;100.00
29331;BME280;16331;52.528;13.342;2022-10-24T12:36:12;161176.09;;;19.90;100.00
29331;BME280;16331;52.528;13.342;2022-10-24T12:41:35;161166.41;;;19.86;100.00
29331;BME280;16331;52.528;13.342;2022-10-24T12:44:34;161188.53;;;19.94;100.00
29331;BME280;16331;52.528;13.342;2022-10-24T12:49:56;161149.84;;;19.80;100.00
29331;BME280;16331;52.528;13.342;2022-10-24T12:54:56;161255.00;;;20.19;100.00
29331;BME280;16331;52.528;13.342;2022-10-24T12:57:27;161475.13;;;20.98;100.00
29331;BME280;16331;52.528;13.342;2022-10-24T12:59:59;161673.13;;;21.70;100.00
29331;BME280;16331;52.528;13.342;2022-10-24T13:02:35;161724.41;;;21.89;100.00
29331;BME280;16331;52.528;13.342;2022-10-24T13:08:33;161789.50;;;22.12;100.00
29331;BME280;16331;52.528;13.342;2022-10-24T13:11:32;161788.16;;;22.12;100.00
29331;BME280;16331;52.528;13.342;2022-10-24T13:16:59;161620.50;;;21.51;100.00
29331;BME280;16331;52.528;13.342;2022-10-24T13:19:33;161609.41;;;21.47;100.00
29331;BME280;16331;52.528;13.342;2022-10-24T13:22:03;161581.69;;;21.37;100.00
29331;BME280;16331;52.528;13.342;2022-10-24T13:24:35;161576.19;;;21.35;100.00
29331;BME280;16331;52.528;13.342;2022-10-24T13:27:21;161563.69;;;21.30;100.00
29331;BME280;16331;52.528;13.342;2022-10-24T13:34:52;161650.97;;;21.62;100.00
29331;BME280;16331;52.528;13.342;2022-10-24T13:37:29;161585.84;;;21.38;100.00
29331;BME280;16331;52.528;13.342;2022-10-24T13:43:02;161477.88;;;20.99;100.00
29331;BME280;16331;52.528;13.342;2022-10-24T13:48:24;161429.38;;;20.82;100.00
29331;BME280;16331;52.528;13.342;2022-10-24T13:51:19;161375.38;;;20.62;100.00
29331;BME280;16331;52.528;13.342;2022-10-24T13:54:01;161369.84;;;20.60;100.00
29331;BME280;16331;52.528;13.342;2022-10-24T13:56:35;161328.34;;;20.45;100.00
29331;BME280;16331;52.528;13.342;2022-10-24T13:59:03;161310.38;;;20.39;100.00
29331;BME280;16331;52.528;13.342;2022-10-24T14:01:30;161311.75;;;20.39;100.00
29331;BME280;16331;52.528;13.342;2022-10-24T14:03:57;161322.81;;;20.43;100.00
29331;BME280;16331;52.528;13.342;2022-10-24T14:06:27;161346.34;;;20.52;100.00
29331;BME280;16331;52.528;13.342;2022-10-24T14:09:00;161356.03;;;20.55;100.00
29331;BME280;16331;52.528;13.342;2022-10-24T14:11:30;161321.41;;;20.43;100.00
29331;BME280;16331;52.528;13.342;2022-10-24T14:13:59;161290.97;;;20.32;100.00
29331;BME280;16331;52.528;13.342;2022-10-24T14:16:29;161340.81;;;20.50;100.00
29331;BME280;16331;52.528;13.342;2022-10-24T14:19:24;161307.56;;;20.38;100.00
29331;BME280;16331;52.528;13.342;2022-10-24T14:21:55;161308.97;;;20.38;100.00
29331;BME280;16331;52.528;13.342;2022-10-24T14:24:25;161306.22;;;20.37;100.00
29331;BME280;16331;52.528;13.342;2022-10-24T14:26:52;161326.97;;;20.45;100.00